sensor_id;sensor_type;location;lat;lon;timestamp;P1;durP1;ratioP1;P2;durP2;ratioP2
68858;SDS011;55864;49.238;8.092;2023-03-21T00:00:23;7.38;;;2.60;;
68858;SDS011;55864;49.238;8.092;2023-03-21T00:02:24;7.75;;;2.85;;
68858;SDS011;55864;49.238;8.092;2023-03-21T00:04:25;8.38;;;2.80;;
68858;SDS011;55864;49.238;8.092;2023-03-21T00:06:26;11.23;;;2.65;;
68858;SDS011;55864;49.238;8.092;2023-03-21T00:08:27;7.20;;;2.47;;
68858;SDS011;55864;49.238;8.092;2023-03-21T00:10:27;6.70;;;2.42;;
68858;SDS011;55864;49.238;8.092;2023-03-21T00:12:28;7.03;;;2.50;;
68858;SDS011;55864;49.238;8.092;2023-03-21T00:14:30;7.63;;;2.40;;
68858;SDS011;55864;49.238;8.092;2023-03-21T00:16:30;7.18;;;2.47;;
68858;SDS011;55864;49.238;8.092;2023-03-21T00:18:31;9.20;;;2.70;;
68858;SDS011;55864;49.238;8.092;2023-03-21T00:20:32;7.20;;;2.13;;
68858;SDS011;55864;49.238;8.092;2023-03-21T00:22:33;8.32;;;2.55;;
68858;SDS011;55864;49.238;8.092;2023-03-21T00:24:35;8.60;;;2.42;;
68858;SDS011;55864;49.238;8.092;2023-03-21T00:26:36;6.70;;;2.50;;
68858;SDS011;55864;49.238;8.092;2023-03-21T00:28:37;7.93;;;2.70;;
68858;SDS011;55864;49.238;8.092;2023-03-21T00:30:40;8.07;;;2.85;;
68858;SDS011;55864;49.238;8.092;2023-03-21T00:32:41;9.18;;;2.70;;
68858;SDS011;55864;49.238;8.092;2023-03-21T00:34:41;5.88;;;2.28;;
68858;SDS011;55864;49.238;8.092;2023-03-21T00:36:42;6.30;;;2.20;;
68858;SDS011;55864;49.238;8.092;2023-03-21T00:38:43;7.85;;;2.53;;
68858;SDS011;55864;49.238;8.092;2023-03-21T00:40:43;9.98;;;2.70;;
68858;SDS011;55864;49.238;8.092;2023-03-21T00:42:44;6.50;;;2.53;;
68858;SDS011;55864;49.238;8.092;2023-03-21T00:44:45;7.53;;;2.88;;
68858;SDS011;55864;49.238;8.092;2023-03-21T00:46:46;7.60;;;2.40;;
68858;SDS011;55864;49.238;8.092;2023-03-21T00:48:47;9.38;;;2.90;;
68858;SDS011;55864;49.238;8.092;2023-03-21T00:50:49;6.80;;;2.53;;
68858;SDS011;55864;49.238;8.092;2023-03-21T00:52:51;7.25;;;2.40;;
68858;SDS011;55864;49.238;8.092;2023-03-21T00:54:51;7.88;;;2.65;;
68858;SDS011;55864;49.238;8.092;2023-03-21T00:56:52;6.88;;;2.45;;
68858;SDS011;55864;49.238;8.092;2023-03-21T00:58:53;7.32;;;2.80;;
68858;SDS011;55864;49.238;8.092;2023-03-21T01:00:53;6.85;;;2.55;;
68858;SDS011;55864;49.238;8.092;2023-03-21T01:02:55;9.68;;;3.08;;
68858;SDS011;55864;49.238;8.092;2023-03-21T01:04:56;12.57;;;4.17;;
68858;SDS011;55864;49.238;8.092;2023-03-21T01:06:57;20.10;;;6.68;;
68858;SDS011;55864;49.238;8.092;2023-03-21T01:08:58;13.00;;;5.15;;
68858;SDS011;55864;49.238;8.092;2023-03-21T01:11:00;15.95;;;4.55;;
68858;SDS011;55864;49.238;8.092;2023-03-21T01:13:02;10.48;;;3.70;;
68858;SDS011;55864;49.238;8.092;2023-03-21T01:15:03;14.18;;;4.13;;
68858;SDS011;55864;49.238;8.092;2023-03-21T01:17:04;10.88;;;3.20;;
68858;SDS011;55864;49.238;8.092;2023-03-21T01:19:06;10.52;;;3.38;;
68858;SDS011;55864;49.238;8.092;2023-03-21T01:21:12;11.15;;;3.00;;
68858;SDS011;55864;49.238;8.092;2023-03-21T01:23:13;11.63;;;3.40;;
68858;SDS011;55864;49.238;8.092;2023-03-21T01:25:15;9.55;;;3.22;;
68858;SDS011;55864;49.238;8.092;2023-03-21T01:27:15;7.93;;;2.80;;
68858;SDS011;55864;49.238;8.092;2023-03-21T01:29:16;8.13;;;2.53;;
68858;SDS011;55864;49.238;8.092;2023-03-21T01:31:17;8.50;;;3.17;;
68858;SDS011;55864;49.238;8.092;2023-03-21T01:33:18;11.20;;;3.10;;
68858;SDS011;55864;49.238;8.092;2023-03-21T01:35:20;9.90;;;2.58;;
68858;SDS011;55864;49.238;8.092;2023-03-21T01:37:21;8.65;;;2.80;;
68858;SDS011;55864;49.238;8.092;2023-03-21T01:39:24;4.93;;;1.67;;
68858;SDS011;55864;49.238;8.092;2023-03-21T01:41:25;7.55;;;2.10;;
68858;SDS011;55864;49.238;8.092;2023-03-21T01:43:29;6.40;;;2.03;;
68858;SDS011;55864;49.238;8.092;2023-03-21T01:48:39;6.22;;;1.90;;
68858;SDS011;55864;49.238;8.092;2023-03-21T01:50:43;6.55;;;1.92;;
68858;SDS011;55864;49.238;8.092;2023-03-21T01:52:54;8.25;;;2.38;;
68858;SDS011;55864;49.238;8.092;2023-03-21T01:55:01;8.02;;;2.20;;
68858;SDS011;55864;49.238;8.092;2023-03-21T01:57:08;8.57;;;2.80;;
68858;SDS011;55864;49.238;8.092;2023-03-21T01:59:13;8.50;;;2.05;;
68858;SDS011;55864;49.238;8.092;2023-03-21T02:01:38;11.32;;;2.03;;
68858;SDS011;55864;49.238;8.092;2023-03-21T02:03:40;7.93;;;2.10;;
68858;SDS011;55864;49.238;8.092;2023-03-21T02:05:54;8.15;;;2.45;;
68858;SDS011;55864;49.238;8.092;2023-03-21T02:08:00;8.03;;;2.17;;
68858;SDS011;55864;49.238;8.092;2023-03-21T02:10:02;5.70;;;2.00;;
68858;SDS011;55864;49.238;8.092;2023-03-21T02:12:04;7.53;;;2.30;;
68858;SDS011;55864;49.238;8.092;2023-03-21T02:14:08;6.53;;;1.93;;
68858;SDS011;55864;49.238;8.092;2023-03-21T02:16:27;5.72;;;2.00;;
68858;SDS011;55864;49.238;8.092;2023-03-21T02:18:38;9.20;;;2.30;;
68858;SDS011;55864;49.238;8.092;2023-03-21T02:21:02;6.40;;;2.17;;
68858;SDS011;55864;49.238;8.092;2023-03-21T02:26:08;10.40;;;2.67;;
68858;SDS011;55864;49.238;8.092;2023-03-21T02:28:47;5.82;;;1.90;;
68858;SDS011;55864;49.238;8.092;2023-03-21T02:36:02;6.17;;;2.10;;
68858;SDS011;55864;49.238;8.092;2023-03-21T02:38:18;7.27;;;2.20;;
68858;SDS011;55864;49.238;8.092;2023-03-21T02:40:29;7.60;;;2.03;;
68858;SDS011;55864;49.238;8.092;2023-03-21T02:42:36;7.43;;;2.40;;
68858;SDS011;55864;49.238;8.092;2023-03-21T02:44:45;7.67;;;2.17;;
68858;SDS011;55864;49.238;8.092;2023-03-21T02:46:54;8.37;;;2.67;;
68858;SDS011;55864;49.238;8.092;2023-03-21T02:49:00;9.80;;;2.60;;
68858;SDS011;55864;49.238;8.092;2023-03-21T02:51:07;8.13;;;2.83;;
68858;SDS011;55864;49.238;8.092;2023-03-21T02:53:14;7.90;;;2.13;;
68858;SDS011;55864;49.238;8.092;2023-03-21T02:55:21;7.17;;;2.20;;
68858;SDS011;55864;49.238;8.092;2023-03-21T02:57:29;6.07;;;2.07;;
68858;SDS011;55864;49.238;8.092;2023-03-21T02:59:34;7.20;;;2.00;;
68858;SDS011;55864;49.238;8.092;2023-03-21T03:01:37;7.93;;;2.10;;
68858;SDS011;55864;49.238;8.092;2023-03-21T03:03:38;6.17;;;2.07;;
68858;SDS011;55864;49.238;8.092;2023-03-21T03:05:40;7.37;;;2.07;;
68858;SDS011;55864;49.238;8.092;2023-03-21T03:07:46;9.37;;;2.00;;
68858;SDS011;55864;49.238;8.092;2023-03-21T03:10:02;8.17;;;2.10;;
68858;SDS011;55864;49.238;8.092;2023-03-21T03:12:23;8.37;;;2.03;;
68858;SDS011;55864;49.238;8.092;2023-03-21T03:14:37;8.43;;;2.00;;
68858;SDS011;55864;49.238;8.092;2023-03-21T03:16:48;6.47;;;1.90;;
68858;SDS011;55864;49.238;8.092;2023-03-21T03:19:00;8.32;;;1.92;;
68858;SDS011;55864;49.238;8.092;2023-03-21T03:21:02;6.83;;;1.87;;
68858;SDS011;55864;49.238;8.092;2023-03-21T03:23:11;9.60;;;1.90;;
68858;SDS011;55864;49.238;8.092;2023-03-21T03:25:18;7.30;;;2.10;;
68858;SDS011;55864;49.238;8.092;2023-03-21T03:27:28;8.10;;;2.23;;
68858;SDS011;55864;49.238;8.092;2023-03-21T03:29:37;7.53;;;1.80;;
68858;SDS011;55864;49.238;8.092;2023-03-21T03:31:41;7.50;;;2.27;;
68858;SDS011;55864;49.238;8.092;2023-03-21T03:33:47;7.33;;;1.90;;
68858;SDS011;55864;49.238;8.092;2023-03-21T03:35:49;7.03;;;1.90;;
68858;SDS011;55864;49.238;8.092;2023-03-21T03:37:53;8.85;;;2.00;;
68858;SDS011;55864;49.238;8.092;2023-03-21T03:39:57;9.13;;;1.98;;
68858;SDS011;55864;49.238;8.092;2023-03-21T03:42:04;7.93;;;2.20;;
68858;SDS011;55864;49.238;8.092;2023-03-21T03:44:13;6.07;;;1.83;;
68858;SDS011;55864;49.238;8.092;2023-03-21T03:46:21;7.53;;;2.23;;
68858;SDS011;55864;49.238;8.092;2023-03-21T03:48:27;9.97;;;2.17;;
68858;SDS011;55864;49.238;8.092;2023-03-21T03:50:35;6.40;;;1.87;;
68858;SDS011;55864;49.238;8.092;2023-03-21T03:52:44;9.77;;;2.10;;
68858;SDS011;55864;49.238;8.092;2023-03-21T03:54:51;7.33;;;2.10;;
68858;SDS011;55864;49.238;8.092;2023-03-21T03:56:55;6.55;;;2.08;;
68858;SDS011;55864;49.238;8.092;2023-03-21T03:58:56;6.93;;;2.00;;
68858;SDS011;55864;49.238;8.092;2023-03-21T04:01:09;7.10;;;2.23;;
68858;SDS011;55864;49.238;8.092;2023-03-21T04:03:11;8.10;;;2.30;;
68858;SDS011;55864;49.238;8.092;2023-03-21T04:05:11;7.03;;;2.10;;
68858;SDS011;55864;49.238;8.092;2023-03-21T04:07:12;7.90;;;2.10;;
68858;SDS011;55864;49.238;8.092;2023-03-21T04:09:14;6.80;;;1.90;;
68858;SDS011;55864;49.238;8.092;2023-03-21T04:11:14;5.90;;;2.17;;
68858;SDS011;55864;49.238;8.092;2023-03-21T04:13:19;6.37;;;1.90;;
68858;SDS011;55864;49.238;8.092;2023-03-21T04:15:33;6.63;;;2.00;;
68858;SDS011;55864;49.238;8.092;2023-03-21T04:17:43;8.23;;;2.10;;
68858;SDS011;55864;49.238;8.092;2023-03-21T04:19:44;7.23;;;1.77;;
68858;SDS011;55864;49.238;8.092;2023-03-21T04:21:45;5.07;;;1.77;;
68858;SDS011;55864;49.238;8.092;2023-03-21T04:23:46;8.97;;;2.00;;
68858;SDS011;55864;49.238;8.092;2023-03-21T04:25:47;7.70;;;1.93;;
68858;SDS011;55864;49.238;8.092;2023-03-21T04:27:47;8.30;;;2.73;;
68858;SDS011;55864;49.238;8.092;2023-03-21T04:30:09;6.77;;;2.13;;
68858;SDS011;55864;49.238;8.092;2023-03-21T04:34:42;7.60;;;2.17;;
68858;SDS011;55864;49.238;8.092;2023-03-21T04:36:43;7.13;;;2.20;;
68858;SDS011;55864;49.238;8.092;2023-03-21T04:38:43;6.87;;;2.10;;
68858;SDS011;55864;49.238;8.092;2023-03-21T04:40:44;9.63;;;1.90;;
68858;SDS011;55864;49.238;8.092;2023-03-21T04:42:45;6.00;;;1.80;;
68858;SDS011;55864;49.238;8.092;2023-03-21T04:44:46;5.37;;;1.60;;
68858;SDS011;55864;49.238;8.092;2023-03-21T04:46:47;6.17;;;1.70;;
68858;SDS011;55864;49.238;8.092;2023-03-21T04:48:48;6.00;;;1.60;;
68858;SDS011;55864;49.238;8.092;2023-03-21T04:50:50;6.20;;;1.80;;
68858;SDS011;55864;49.238;8.092;2023-03-21T04:52:51;7.87;;;2.00;;
68858;SDS011;55864;49.238;8.092;2023-03-21T04:54:53;6.73;;;2.00;;
68858;SDS011;55864;49.238;8.092;2023-03-21T04:56:54;10.10;;;3.90;;
68858;SDS011;55864;49.238;8.092;2023-03-21T04:58:55;12.47;;;6.33;;
68858;SDS011;55864;49.238;8.092;2023-03-21T05:00:56;12.80;;;6.40;;
68858;SDS011;55864;49.238;8.092;2023-03-21T05:02:56;8.93;;;3.30;;
68858;SDS011;55864;49.238;8.092;2023-03-21T05:04:57;7.03;;;2.67;;
68858;SDS011;55864;49.238;8.092;2023-03-21T05:06:59;6.60;;;2.60;;
68858;SDS011;55864;49.238;8.092;2023-03-21T05:09:00;7.80;;;2.00;;
68858;SDS011;55864;49.238;8.092;2023-03-21T05:11:03;5.30;;;1.70;;
68858;SDS011;55864;49.238;8.092;2023-03-21T05:13:04;7.07;;;1.80;;
68858;SDS011;55864;49.238;8.092;2023-03-21T05:15:06;5.43;;;1.70;;
68858;SDS011;55864;49.238;8.092;2023-03-21T05:19:10;6.67;;;1.90;;
68858;SDS011;55864;49.238;8.092;2023-03-21T05:21:13;7.57;;;1.67;;
68858;SDS011;55864;49.238;8.092;2023-03-21T05:23:15;6.20;;;2.20;;
68858;SDS011;55864;49.238;8.092;2023-03-21T05:25:16;5.50;;;1.70;;
68858;SDS011;55864;49.238;8.092;2023-03-21T05:27:32;7.43;;;1.77;;
68858;SDS011;55864;49.238;8.092;2023-03-21T05:29:32;8.23;;;1.90;;
68858;SDS011;55864;49.238;8.092;2023-03-21T05:31:39;7.13;;;2.00;;
68858;SDS011;55864;49.238;8.092;2023-03-21T05:33:43;7.80;;;2.83;;
68858;SDS011;55864;49.238;8.092;2023-03-21T05:35:48;9.53;;;3.40;;
68858;SDS011;55864;49.238;8.092;2023-03-21T05:37:49;10.90;;;3.60;;
68858;SDS011;55864;49.238;8.092;2023-03-21T05:39:52;10.20;;;4.00;;
68858;SDS011;55864;49.238;8.092;2023-03-21T05:42:05;7.87;;;3.10;;
68858;SDS011;55864;49.238;8.092;2023-03-21T05:44:06;8.83;;;3.20;;
68858;SDS011;55864;49.238;8.092;2023-03-21T05:46:07;9.90;;;2.90;;
68858;SDS011;55864;49.238;8.092;2023-03-21T05:48:07;8.93;;;3.00;;
68858;SDS011;55864;49.238;8.092;2023-03-21T05:50:21;8.75;;;2.75;;
68858;SDS011;55864;49.238;8.092;2023-03-21T05:52:35;10.15;;;2.35;;
68858;SDS011;55864;49.238;8.092;2023-03-21T05:54:43;6.33;;;2.20;;
68858;SDS011;55864;49.238;8.092;2023-03-21T05:56:45;8.63;;;2.93;;
68858;SDS011;55864;49.238;8.092;2023-03-21T05:58:52;6.83;;;2.30;;
68858;SDS011;55864;49.238;8.092;2023-03-21T06:00:54;6.03;;;2.13;;
68858;SDS011;55864;49.238;8.092;2023-03-21T06:03:01;7.27;;;2.60;;
68858;SDS011;55864;49.238;8.092;2023-03-21T06:05:28;8.17;;;2.77;;
68858;SDS011;55864;49.238;8.092;2023-03-21T06:07:29;9.53;;;3.43;;
68858;SDS011;55864;49.238;8.092;2023-03-21T06:09:29;8.47;;;2.80;;
68858;SDS011;55864;49.238;8.092;2023-03-21T06:11:34;22.47;;;8.77;;
68858;SDS011;55864;49.238;8.092;2023-03-21T06:14:16;9.80;;;3.80;;
68858;SDS011;55864;49.238;8.092;2023-03-21T06:16:19;8.13;;;3.10;;
68858;SDS011;55864;49.238;8.092;2023-03-21T06:18:20;8.37;;;2.80;;
68858;SDS011;55864;49.238;8.092;2023-03-21T06:20:28;7.97;;;2.50;;
68858;SDS011;55864;49.238;8.092;2023-03-21T06:22:36;9.67;;;2.47;;
68858;SDS011;55864;49.238;8.092;2023-03-21T06:24:37;6.88;;;2.22;;
68858;SDS011;55864;49.238;8.092;2023-03-21T06:26:38;7.87;;;2.60;;
68858;SDS011;55864;49.238;8.092;2023-03-21T06:28:38;6.17;;;2.37;;
68858;SDS011;55864;49.238;8.092;2023-03-21T06:30:41;9.03;;;2.70;;
68858;SDS011;55864;49.238;8.092;2023-03-21T06:32:52;8.57;;;2.90;;
68858;SDS011;55864;49.238;8.092;2023-03-21T06:34:53;9.27;;;2.80;;
68858;SDS011;55864;49.238;8.092;2023-03-21T06:36:53;7.30;;;2.90;;
68858;SDS011;55864;49.238;8.092;2023-03-21T06:39:00;9.27;;;3.10;;
68858;SDS011;55864;49.238;8.092;2023-03-21T06:41:00;12.77;;;3.10;;
68858;SDS011;55864;49.238;8.092;2023-03-21T06:43:04;8.37;;;2.80;;
68858;SDS011;55864;49.238;8.092;2023-03-21T06:45:05;8.23;;;2.80;;
68858;SDS011;55864;49.238;8.092;2023-03-21T06:47:08;6.97;;;2.93;;
68858;SDS011;55864;49.238;8.092;2023-03-21T06:49:08;10.27;;;3.30;;
68858;SDS011;55864;49.238;8.092;2023-03-21T06:51:10;10.15;;;3.00;;
68858;SDS011;55864;49.238;8.092;2023-03-21T06:53:15;9.67;;;4.73;;
68858;SDS011;55864;49.238;8.092;2023-03-21T06:55:36;9.60;;;3.67;;
68858;SDS011;55864;49.238;8.092;2023-03-21T06:57:39;10.00;;;3.65;;
68858;SDS011;55864;49.238;8.092;2023-03-21T06:59:45;11.55;;;3.47;;
68858;SDS011;55864;49.238;8.092;2023-03-21T07:01:52;10.33;;;3.70;;
68858;SDS011;55864;49.238;8.092;2023-03-21T07:03:54;6.47;;;2.70;;
68858;SDS011;55864;49.238;8.092;2023-03-21T07:06:02;8.53;;;2.60;;
68858;SDS011;55864;49.238;8.092;2023-03-21T07:08:04;5.97;;;2.10;;
68858;SDS011;55864;49.238;8.092;2023-03-21T07:10:08;8.38;;;2.30;;
68858;SDS011;55864;49.238;8.092;2023-03-21T07:12:25;7.80;;;2.40;;
68858;SDS011;55864;49.238;8.092;2023-03-21T07:14:40;9.30;;;3.10;;
68858;SDS011;55864;49.238;8.092;2023-03-21T07:16:41;7.40;;;2.83;;
68858;SDS011;55864;49.238;8.092;2023-03-21T07:18:42;8.00;;;2.50;;
68858;SDS011;55864;49.238;8.092;2023-03-21T07:20:45;10.37;;;2.60;;
68858;SDS011;55864;49.238;8.092;2023-03-21T07:22:50;6.80;;;1.98;;
68858;SDS011;55864;49.238;8.092;2023-03-21T07:24:50;7.97;;;2.42;;
68858;SDS011;55864;49.238;8.092;2023-03-21T07:26:51;17.90;;;5.03;;
68858;SDS011;55864;49.238;8.092;2023-03-21T07:28:55;9.40;;;3.10;;
68858;SDS011;55864;49.238;8.092;2023-03-21T07:30:56;11.05;;;3.05;;
68858;SDS011;55864;49.238;8.092;2023-03-21T07:32:59;7.75;;;2.60;;
68858;SDS011;55864;49.238;8.092;2023-03-21T07:34:59;11.07;;;2.67;;
68858;SDS011;55864;49.238;8.092;2023-03-21T07:37:02;6.00;;;1.98;;
68858;SDS011;55864;49.238;8.092;2023-03-21T07:41:05;6.28;;;2.72;;
68858;SDS011;55864;49.238;8.092;2023-03-21T07:43:07;9.68;;;4.90;;
68858;SDS011;55864;49.238;8.092;2023-03-21T07:45:08;8.73;;;2.83;;
68858;SDS011;55864;49.238;8.092;2023-03-21T07:47:10;8.68;;;2.90;;
68858;SDS011;55864;49.238;8.092;2023-03-21T07:49:10;6.05;;;2.50;;
68858;SDS011;55864;49.238;8.092;2023-03-21T07:51:11;7.90;;;2.50;;
68858;SDS011;55864;49.238;8.092;2023-03-21T07:53:13;6.20;;;2.40;;
68858;SDS011;55864;49.238;8.092;2023-03-21T07:55:13;7.33;;;2.60;;
68858;SDS011;55864;49.238;8.092;2023-03-21T07:57:14;6.05;;;2.20;;
68858;SDS011;55864;49.238;8.092;2023-03-21T07:59:14;7.37;;;2.70;;
68858;SDS011;55864;49.238;8.092;2023-03-21T08:01:15;8.60;;;4.22;;
68858;SDS011;55864;49.238;8.092;2023-03-21T08:03:15;8.40;;;2.63;;
68858;SDS011;55864;49.238;8.092;2023-03-21T08:05:16;10.90;;;3.05;;
68858;SDS011;55864;49.238;8.092;2023-03-21T08:07:17;7.05;;;2.75;;
68858;SDS011;55864;49.238;8.092;2023-03-21T08:09:19;10.27;;;2.78;;
68858;SDS011;55864;49.238;8.092;2023-03-21T08:11:19;7.43;;;2.70;;
68858;SDS011;55864;49.238;8.092;2023-03-21T08:13:20;7.68;;;2.63;;
68858;SDS011;55864;49.238;8.092;2023-03-21T08:15:20;6.93;;;2.40;;
68858;SDS011;55864;49.238;8.092;2023-03-21T08:17:21;7.88;;;2.40;;
68858;SDS011;55864;49.238;8.092;2023-03-21T08:19:22;9.18;;;2.45;;
68858;SDS011;55864;49.238;8.092;2023-03-21T08:21:22;9.50;;;1.98;;
68858;SDS011;55864;49.238;8.092;2023-03-21T08:23:23;7.85;;;2.30;;
68858;SDS011;55864;49.238;8.092;2023-03-21T08:25:25;7.30;;;2.00;;
68858;SDS011;55864;49.238;8.092;2023-03-21T08:27:26;7.38;;;1.95;;
68858;SDS011;55864;49.238;8.092;2023-03-21T08:29:27;5.43;;;1.90;;
68858;SDS011;55864;49.238;8.092;2023-03-21T08:31:27;6.18;;;2.13;;
68858;SDS011;55864;49.238;8.092;2023-03-21T08:33:28;5.15;;;1.92;;
68858;SDS011;55864;49.238;8.092;2023-03-21T08:35:29;6.50;;;2.08;;
68858;SDS011;55864;49.238;8.092;2023-03-21T08:37:29;9.20;;;2.25;;
68858;SDS011;55864;49.238;8.092;2023-03-21T08:39:30;9.25;;;2.55;;
68858;SDS011;55864;49.238;8.092;2023-03-21T08:41:32;8.68;;;2.22;;
68858;SDS011;55864;49.238;8.092;2023-03-21T08:43:34;7.30;;;2.47;;
68858;SDS011;55864;49.238;8.092;2023-03-21T08:45:34;8.27;;;2.15;;
68858;SDS011;55864;49.238;8.092;2023-03-21T08:47:35;6.68;;;2.17;;
68858;SDS011;55864;49.238;8.092;2023-03-21T08:49:35;6.50;;;2.58;;
68858;SDS011;55864;49.238;8.092;2023-03-21T08:51:36;7.45;;;2.75;;
68858;SDS011;55864;49.238;8.092;2023-03-21T08:53:37;8.65;;;2.60;;
68858;SDS011;55864;49.238;8.092;2023-03-21T08:55:37;6.65;;;2.58;;
68858;SDS011;55864;49.238;8.092;2023-03-21T08:57:39;9.65;;;2.53;;
68858;SDS011;55864;49.238;8.092;2023-03-21T08:59:40;8.13;;;2.40;;
68858;SDS011;55864;49.238;8.092;2023-03-21T09:01:40;8.75;;;2.40;;
68858;SDS011;55864;49.238;8.092;2023-03-21T09:03:41;9.32;;;2.55;;
68858;SDS011;55864;49.238;8.092;2023-03-21T09:05:42;11.80;;;2.50;;
68858;SDS011;55864;49.238;8.092;2023-03-21T09:07:43;6.13;;;2.40;;
68858;SDS011;55864;49.238;8.092;2023-03-21T09:09:46;8.15;;;2.50;;
68858;SDS011;55864;49.238;8.092;2023-03-21T09:11:47;7.45;;;2.70;;
68858;SDS011;55864;49.238;8.092;2023-03-21T09:13:49;9.48;;;2.60;;
68858;SDS011;55864;49.238;8.092;2023-03-21T09:15:50;8.60;;;2.92;;
68858;SDS011;55864;49.238;8.092;2023-03-21T09:17:50;7.88;;;4.03;;
68858;SDS011;55864;49.238;8.092;2023-03-21T09:19:51;8.48;;;3.17;;
68858;SDS011;55864;49.238;8.092;2023-03-21T09:21:52;7.30;;;3.05;;
68858;SDS011;55864;49.238;8.092;2023-03-21T09:23:52;8.32;;;3.53;;
68858;SDS011;55864;49.238;8.092;2023-03-21T09:25:53;6.75;;;2.65;;
68858;SDS011;55864;49.238;8.092;2023-03-21T09:27:54;8.48;;;3.15;;
68858;SDS011;55864;49.238;8.092;2023-03-21T09:29:56;13.93;;;5.13;;
68858;SDS011;55864;49.238;8.092;2023-03-21T09:31:56;12.40;;;6.30;;
68858;SDS011;55864;49.238;8.092;2023-03-21T09:33:57;8.45;;;3.88;;
68858;SDS011;55864;49.238;8.092;2023-03-21T09:35:57;8.70;;;3.30;;
68858;SDS011;55864;49.238;8.092;2023-03-21T09:37:58;19.20;;;10.30;;
68858;SDS011;55864;49.238;8.092;2023-03-21T09:39:58;14.02;;;8.00;;
68858;SDS011;55864;49.238;8.092;2023-03-21T09:42:05;10.00;;;5.57;;
68858;SDS011;55864;49.238;8.092;2023-03-21T09:44:17;9.88;;;4.15;;
68858;SDS011;55864;49.238;8.092;2023-03-21T09:46:32;6.70;;;3.33;;
68858;SDS011;55864;49.238;8.092;2023-03-21T09:48:42;6.90;;;2.97;;
68858;SDS011;55864;49.238;8.092;2023-03-21T09:50:48;11.32;;;3.78;;
68858;SDS011;55864;49.238;8.092;2023-03-21T09:52:50;8.38;;;3.78;;
68858;SDS011;55864;49.238;8.092;2023-03-21T09:54:54;7.78;;;3.33;;
68858;SDS011;55864;49.238;8.092;2023-03-21T09:56:56;8.85;;;3.60;;
68858;SDS011;55864;49.238;8.092;2023-03-21T09:59:00;8.63;;;3.90;;
68858;SDS011;55864;49.238;8.092;2023-03-21T10:01:04;10.68;;;4.03;;
68858;SDS011;55864;49.238;8.092;2023-03-21T10:03:12;8.90;;;4.13;;
68858;SDS011;55864;49.238;8.092;2023-03-21T10:05:20;8.50;;;3.72;;
68858;SDS011;55864;49.238;8.092;2023-03-21T10:07:22;8.90;;;3.88;;
68858;SDS011;55864;49.238;8.092;2023-03-21T10:09:23;10.10;;;5.68;;
68858;SDS011;55864;49.238;8.092;2023-03-21T10:11:27;9.75;;;4.13;;
68858;SDS011;55864;49.238;8.092;2023-03-21T10:13:31;8.88;;;4.38;;
68858;SDS011;55864;49.238;8.092;2023-03-21T10:15:34;10.45;;;4.10;;
68858;SDS011;55864;49.238;8.092;2023-03-21T10:17:35;9.10;;;4.13;;
68858;SDS011;55864;49.238;8.092;2023-03-21T10:19:41;11.90;;;4.53;;
68858;SDS011;55864;49.238;8.092;2023-03-21T10:21:43;11.27;;;7.05;;
68858;SDS011;55864;49.238;8.092;2023-03-21T10:23:46;8.07;;;4.05;;
68858;SDS011;55864;49.238;8.092;2023-03-21T10:25:49;14.77;;;8.47;;
68858;SDS011;55864;49.238;8.092;2023-03-21T10:27:52;10.75;;;5.30;;
68858;SDS011;55864;49.238;8.092;2023-03-21T10:29:53;10.13;;;4.80;;
68858;SDS011;55864;49.238;8.092;2023-03-21T10:31:53;13.10;;;6.40;;
68858;SDS011;55864;49.238;8.092;2023-03-21T10:33:55;10.55;;;5.00;;
68858;SDS011;55864;49.238;8.092;2023-03-21T10:36:00;10.38;;;4.57;;
68858;SDS011;55864;49.238;8.092;2023-03-21T10:38:04;14.93;;;4.63;;
68858;SDS011;55864;49.238;8.092;2023-03-21T10:40:09;8.00;;;4.10;;
68858;SDS011;55864;49.238;8.092;2023-03-21T10:42:17;7.78;;;3.88;;
68858;SDS011;55864;49.238;8.092;2023-03-21T10:44:19;9.70;;;4.10;;
68858;SDS011;55864;49.238;8.092;2023-03-21T10:46:20;6.85;;;3.88;;
68858;SDS011;55864;49.238;8.092;2023-03-21T10:48:25;7.72;;;3.83;;
68858;SDS011;55864;49.238;8.092;2023-03-21T10:50:25;7.97;;;3.70;;
68858;SDS011;55864;49.238;8.092;2023-03-21T10:52:30;8.45;;;3.28;;
68858;SDS011;55864;49.238;8.092;2023-03-21T10:54:32;7.82;;;3.75;;
68858;SDS011;55864;49.238;8.092;2023-03-21T10:56:35;7.13;;;4.00;;
68858;SDS011;55864;49.238;8.092;2023-03-21T10:58:39;8.02;;;3.45;;
68858;SDS011;55864;49.238;8.092;2023-03-21T11:00:43;7.75;;;3.45;;
68858;SDS011;55864;49.238;8.092;2023-03-21T11:02:46;6.85;;;3.20;;
68858;SDS011;55864;49.238;8.092;2023-03-21T11:04:48;7.82;;;3.13;;
68858;SDS011;55864;49.238;8.092;2023-03-21T11:06:50;6.68;;;2.90;;
68858;SDS011;55864;49.238;8.092;2023-03-21T11:08:55;7.05;;;3.25;;
68858;SDS011;55864;49.238;8.092;2023-03-21T11:11:00;7.97;;;3.53;;
68858;SDS011;55864;49.238;8.092;2023-03-21T11:13:04;9.07;;;3.58;;
68858;SDS011;55864;49.238;8.092;2023-03-21T11:15:14;8.13;;;3.58;;
68858;SDS011;55864;49.238;8.092;2023-03-21T11:17:27;8.02;;;3.78;;
68858;SDS011;55864;49.238;8.092;2023-03-21T11:19:30;9.43;;;4.53;;
68858;SDS011;55864;49.238;8.092;2023-03-21T11:21:34;9.48;;;5.53;;
68858;SDS011;55864;49.238;8.092;2023-03-21T11:23:37;9.43;;;4.70;;
68858;SDS011;55864;49.238;8.092;2023-03-21T11:25:42;8.57;;;4.35;;
68858;SDS011;55864;49.238;8.092;2023-03-21T11:27:46;9.93;;;3.78;;
68858;SDS011;55864;49.238;8.092;2023-03-21T11:29:48;7.85;;;3.30;;
68858;SDS011;55864;49.238;8.092;2023-03-21T11:31:49;10.60;;;3.63;;
68858;SDS011;55864;49.238;8.092;2023-03-21T11:33:50;8.52;;;3.22;;
68858;SDS011;55864;49.238;8.092;2023-03-21T11:35:57;5.93;;;3.03;;
68858;SDS011;55864;49.238;8.092;2023-03-21T11:38:03;5.95;;;2.78;;
68858;SDS011;55864;49.238;8.092;2023-03-21T11:40:07;8.55;;;2.92;;
68858;SDS011;55864;49.238;8.092;2023-03-21T11:42:30;6.40;;;3.03;;
68858;SDS011;55864;49.238;8.092;2023-03-21T11:44:33;7.88;;;2.88;;
68858;SDS011;55864;49.238;8.092;2023-03-21T11:46:42;6.18;;;3.00;;
68858;SDS011;55864;49.238;8.092;2023-03-21T11:48:43;6.45;;;2.50;;
68858;SDS011;55864;49.238;8.092;2023-03-21T11:50:46;6.30;;;2.70;;
68858;SDS011;55864;49.238;8.092;2023-03-21T11:52:53;9.70;;;3.33;;
68858;SDS011;55864;49.238;8.092;2023-03-21T11:55:17;7.95;;;3.97;;
68858;SDS011;55864;49.238;8.092;2023-03-21T11:57:26;7.15;;;3.53;;
68858;SDS011;55864;49.238;8.092;2023-03-21T11:59:36;8.77;;;3.10;;
68858;SDS011;55864;49.238;8.092;2023-03-21T12:01:48;8.57;;;3.05;;
68858;SDS011;55864;49.238;8.092;2023-03-21T12:04:03;7.05;;;2.88;;
68858;SDS011;55864;49.238;8.092;2023-03-21T12:06:12;8.27;;;3.83;;
68858;SDS011;55864;49.238;8.092;2023-03-21T12:08:21;7.28;;;3.00;;
68858;SDS011;55864;49.238;8.092;2023-03-21T12:10:30;8.60;;;3.38;;
68858;SDS011;55864;49.238;8.092;2023-03-21T12:12:39;9.30;;;3.60;;
68858;SDS011;55864;49.238;8.092;2023-03-21T12:14:51;7.00;;;3.10;;
68858;SDS011;55864;49.238;8.092;2023-03-21T12:17:03;5.72;;;2.90;;
68858;SDS011;55864;49.238;8.092;2023-03-21T12:19:19;7.07;;;2.97;;
68858;SDS011;55864;49.238;8.092;2023-03-21T12:21:32;7.68;;;2.97;;
68858;SDS011;55864;49.238;8.092;2023-03-21T12:23:41;8.65;;;2.92;;
68858;SDS011;55864;49.238;8.092;2023-03-21T12:25:51;7.72;;;3.25;;
68858;SDS011;55864;49.238;8.092;2023-03-21T12:27:59;7.50;;;2.92;;
68858;SDS011;55864;49.238;8.092;2023-03-21T12:30:12;11.10;;;4.00;;
68858;SDS011;55864;49.238;8.092;2023-03-21T12:32:26;8.25;;;3.92;;
68858;SDS011;55864;49.238;8.092;2023-03-21T12:34:45;6.13;;;2.90;;
68858;SDS011;55864;49.238;8.092;2023-03-21T12:37:00;6.70;;;2.90;;
68858;SDS011;55864;49.238;8.092;2023-03-21T12:39:16;9.07;;;3.17;;
68858;SDS011;55864;49.238;8.092;2023-03-21T12:41:27;8.68;;;3.05;;
68858;SDS011;55864;49.238;8.092;2023-03-21T12:43:36;6.55;;;3.00;;
68858;SDS011;55864;49.238;8.092;2023-03-21T12:45:43;6.88;;;2.90;;